Time;durP1;ratioP1;P1;durP2;ratioP2;P2;SDS_P1;SDS_P2;PMS_P1;PMS_P2;Temp;Humidity;BMP_temperature;BMP_pressure;BME280_temperature;BME280_humidity;BME280_pressure;Samples;Min_cycle;Max_cycle;Signal;HPM_P1;HPM_P2
2021/03/12 00:01:08;;;;;;;2.63;0.98;;;9.20;78.00;;;;;;5133854;27;20195;-76
2021/03/12 00:03:37;;;;;;;1.60;0.63;;;9.30;77.90;;;;;;5133624;27;20240;-76
2021/03/12 00:06:06;;;;;;;1.95;0.65;;;9.30;77.70;;;;;;5133451;27;20630;-75
2021/03/12 00:08:35;;;;;;;1.80;0.60;;;9.30;77.40;;;;;;5133804;27;20283;-76
2021/03/12 00:11:03;;;;;;;1.40;0.60;;;9.30;76.30;;;;;;5133662;27;20218;-76
2021/03/12 00:13:31;;;;;;;2.13;0.70;;;9.40;77.20;;;;;;5133499;27;20245;-76
2021/03/12 00:15:58;;;;;;;1.60;0.60;;;9.50;77.50;;;;;;5133477;27;20274;-76
2021/03/12 00:18:28;;;;;;;1.60;0.68;;;9.40;76.10;;;;;;5133687;27;20582;-75
2021/03/12 00:20:55;;;;;;;1.58;0.60;;;9.30;73.70;;;;;;5133570;27;20650;-76
2021/03/12 00:23:22;;;;;;;1.50;0.60;;;9.20;73.80;;;;;;5133479;27;20244;-76
2021/03/12 00:25:48;;;;;;;2.00;0.70;;;9.10;73.60;;;;;;5133517;27;20180;-76
2021/03/12 00:28:16;;;;;;;2.42;0.70;;;9.20;73.90;;;;;;5133507;28;20199;-75
2021/03/12 00:30:45;;;;;;;1.40;0.60;;;9.10;73.70;;;;;;5133092;28;20234;-76
2021/03/12 00:33:12;;;;;;;1.60;0.60;;;9.10;73.30;;;;;;5133468;28;20656;-76
2021/03/12 00:35:40;;;;;;;1.30;0.60;;;9.00;72.50;;;;;;5133465;28;20195;-75
2021/03/12 00:38:07;;;;;;;1.40;0.57;;;8.90;71.30;;;;;;5133340;28;20234;-75
2021/03/12 00:40:40;;;;;;;1.48;0.68;;;8.80;71.80;;;;;;5133318;28;20612;-75
2021/03/12 00:43:06;;;;;;;1.33;0.60;;;8.80;71.40;;;;;;5133406;28;20191;-75
2021/03/12 00:45:35;;;;;;;2.85;0.90;;;8.70;71.50;;;;;;5133492;28;20191;-75
2021/03/12 00:48:03;;;;;;;1.38;0.52;;;8.70;72.00;;;;;;5133322;28;20188;-76
2021/03/12 00:50:32;;;;;;;3.65;0.82;;;8.70;71.70;;;;;;5133199;28;20219;-76
2021/03/12 00:52:59;;;;;;;1.67;0.63;;;8.70;71.90;;;;;;5133372;28;20191;-75
2021/03/12 00:55:26;;;;;;;4.57;0.90;;;8.60;72.80;;;;;;5133369;28;20475;-75
2021/03/12 00:57:52;;;;;;;1.55;0.60;;;8.70;72.90;;;;;;5133200;28;20192;-75
2021/03/12 01:00:22;;;;;;;2.67;0.60;;;8.60;72.90;;;;;;5133285;28;20654;-75
2021/03/12 01:02:49;;;;;;;1.70;0.70;;;8.60;72.40;;;;;;5133254;28;20192;-75
2021/03/12 01:05:17;;;;;;;2.10;0.55;;;8.60;72.50;;;;;;5132890;28;20645;-76
2021/03/12 01:07:44;;;;;;;1.50;0.60;;;8.60;72.70;;;;;;5132819;28;20188;-76
2021/03/12 01:10:12;;;;;;;1.40;0.60;;;8.60;73.30;;;;;;5132567;28;20223;-75
2021/03/12 01:12:42;;;;;;;1.75;0.68;;;8.60;72.40;;;;;;5132605;28;20211;-75
2021/03/12 01:15:14;;;;;;;3.15;0.95;;;8.60;72.40;;;;;;5132774;28;20195;-75
2021/03/12 01:17:40;;;;;;;1.65;0.70;;;8.60;72.60;;;;;;5135470;27;20593;-75
2021/03/12 01:20:09;;;;;;;2.05;0.73;;;8.60;72.80;;;;;;5136824;27;20199;-75
2021/03/12 01:22:37;;;;;;;1.63;0.77;;;8.60;72.10;;;;;;5136430;27;20188;-75
2021/03/12 01:25:06;;;;;;;2.20;0.98;;;8.60;71.80;;;;;;5136506;27;20196;-75
2021/03/12 01:27:38;;;;;;;1.95;1.13;;;8.60;71.50;;;;;;5136468;27;20191;-75
2021/03/12 01:30:11;;;;;;;1.65;0.70;;;8.60;71.80;;;;;;5135939;27;20215;-75
2021/03/12 01:32:37;;;;;;;1.50;0.60;;;8.60;71.80;;;;;;5136387;27;20203;-75
2021/03/12 01:35:05;;;;;;;2.15;1.15;;;8.60;70.90;;;;;;5135852;27;20725;-75
2021/03/12 01:37:32;;;;;;;1.50;0.68;;;8.60;70.50;;;;;;5136068;27;20583;-75
2021/03/12 01:40:00;;;;;;;4.50;0.90;;;8.70;69.90;;;;;;5135952;27;20572;-75
2021/03/12 01:42:27;;;;;;;6.05;0.70;;;8.70;70.40;;;;;;5135961;27;20496;-76
2021/03/12 01:44:54;;;;;;;1.60;0.60;;;8.70;69.90;;;;;;5135857;27;20196;-75
2021/03/12 01:47:20;;;;;;;3.15;0.70;;;8.70;70.00;;;;;;5136052;27;20198;-75
2021/03/12 01:49:47;;;;;;;2.53;0.80;;;8.70;70.00;;;;;;5135927;27;20215;-76
2021/03/12 01:52:14;;;;;;;2.47;0.85;;;8.80;70.40;;;;;;5136027;27;20260;-76
2021/03/12 01:54:40;;;;;;;1.88;0.60;;;8.80;69.70;;;;;;5135780;27;20183;-75
2021/03/12 01:57:10;;;;;;;1.55;0.70;;;8.80;69.20;;;;;;5136167;27;20532;-76
2021/03/12 01:59:37;;;;;;;1.50;0.70;;;8.80;69.80;;;;;;5136257;27;20195;-77
2021/03/12 02:02:04;;;;;;;5.55;0.90;;;8.90;69.70;;;;;;5136425;27;20244;-76
2021/03/12 02:04:31;;;;;;;1.40;0.50;;;8.90;70.30;;;;;;5136272;27;20272;-76
2021/03/12 02:06:58;;;;;;;1.40;0.63;;;9.00;70.60;;;;;;5136279;27;20195;-76
2021/03/12 02:09:24;;;;;;;1.40;0.50;;;8.90;70.90;;;;;;5136090;27;20188;-77
2021/03/12 02:11:59;;;;;;;1.65;0.50;;;8.70;70.50;;;;;;5135944;27;20745;-77
2021/03/12 02:14:34;;;;;;;1.58;0.55;;;8.60;70.80;;;;;;5136245;27;20289;-77
2021/03/12 02:17:09;;;;;;;2.13;0.60;;;8.40;71.00;;;;;;5135754;27;20209;-76
2021/03/12 02:19:51;;;;;;;1.40;0.60;;;8.20;69.60;;;;;;5135653;27;20236;-76
2021/03/12 02:22:21;;;;;;;2.30;0.65;;;8.00;68.90;;;;;;5135859;27;20187;-75
2021/03/12 02:24:53;;;;;;;1.30;0.50;;;7.90;68.60;;;;;;5135871;27;20199;-75
2021/03/12 02:27:24;;;;;;;1.45;0.60;;;7.90;69.10;;;;;;5135783;27;20199;-75
2021/03/12 02:29:56;;;;;;;2.78;0.60;;;7.80;69.40;;;;;;5135582;27;20371;-75
2021/03/12 02:32:29;;;;;;;1.30;0.50;;;7.70;70.30;;;;;;5135525;27;20659;-75
2021/03/12 02:34:57;;;;;;;1.30;0.50;;;7.70;71.20;;;;;;5135480;27;20660;-76
2021/03/12 02:37:24;;;;;;;1.73;0.50;;;7.60;71.60;;;;;;5135382;27;20630;-75
2021/03/12 02:39:55;;;;;;;2.53;0.55;;;7.60;72.20;;;;;;5135477;27;20199;-76
2021/03/12 02:42:23;;;;;;;1.30;0.47;;;7.50;72.40;;;;;;5135353;27;20217;-75
2021/03/12 02:44:55;;;;;;;1.40;0.50;;;7.40;72.80;;;;;;5135613;27;20504;-75
2021/03/12 02:47:24;;;;;;;1.30;0.50;;;7.40;73.50;;;;;;5135471;27;20211;-75
2021/03/12 02:49:52;;;;;;;1.30;0.50;;;7.40;74.00;;;;;;5135254;27;20215;-75
2021/03/12 02:52:19;;;;;;;1.30;0.50;;;7.30;74.10;;;;;;5135369;27;20199;-75
2021/03/12 02:54:47;;;;;;;1.30;0.50;;;7.30;73.90;;;;;;5135461;27;20195;-75
2021/03/12 02:57:15;;;;;;;1.30;0.50;;;7.20;74.10;;;;;;5135267;27;20368;-76
2021/03/12 02:59:43;;;;;;;1.30;0.50;;;7.20;74.30;;;;;;5135053;27;20216;-75
2021/03/12 03:02:11;;;;;;;1.30;0.50;;;7.10;74.20;;;;;;5135085;27;20225;-75
2021/03/12 03:04:39;;;;;;;1.40;0.60;;;7.10;74.50;;;;;;5135254;27;20230;-75
2021/03/12 03:07:08;;;;;;;1.80;0.70;;;7.10;74.60;;;;;;5134915;27;20237;-76
2021/03/12 03:09:36;;;;;;;2.33;0.90;;;7.10;74.60;;;;;;5134986;27;20275;-75
2021/03/12 03:12:03;;;;;;;1.30;0.50;;;7.10;74.70;;;;;;5134816;27;20219;-76
2021/03/12 03:14:32;;;;;;;1.30;0.50;;;7.20;75.00;;;;;;5134745;27;20191;-75
2021/03/12 03:17:01;;;;;;;1.40;0.60;;;7.20;75.10;;;;;;5134913;27;20184;-76
2021/03/12 03:19:33;;;;;;;1.60;0.60;;;7.30;75.60;;;;;;5134906;27;20202;-75
2021/03/12 03:22:00;;;;;;;1.60;0.70;;;7.30;75.30;;;;;;5134746;27;20190;-76
2021/03/12 03:24:29;;;;;;;1.38;0.65;;;7.30;75.70;;;;;;5134743;27;20188;-76
2021/03/12 03:26:55;;;;;;;2.88;0.70;;;7.20;75.80;;;;;;5134734;27;20192;-76
2021/03/12 03:29:22;;;;;;;5.00;0.90;;;7.20;76.20;;;;;;5134315;27;20184;-76
2021/03/12 03:31:50;;;;;;;2.40;0.85;;;7.20;75.60;;;;;;5134392;27;20230;-76
2021/03/12 03:34:18;;;;;;;1.92;0.70;;;7.30;76.20;;;;;;5134850;27;20192;-76
2021/03/12 03:36:45;;;;;;;2.53;1.10;;;7.40;76.10;;;;;;5134434;27;20199;-76
2021/03/12 03:39:12;;;;;;;1.60;0.70;;;7.40;76.20;;;;;;5133781;27;20195;-76
2021/03/12 03:41:41;;;;;;;1.83;0.77;;;7.40;75.80;;;;;;5134260;27;20184;-76
2021/03/12 03:44:10;;;;;;;2.20;0.98;;;7.50;75.70;;;;;;5133911;27;20609;-76
2021/03/12 03:46:38;;;;;;;2.30;0.70;;;7.50;75.80;;;;;;5134132;27;20199;-77
2021/03/12 03:49:07;;;;;;;3.75;1.20;;;7.50;75.60;;;;;;5134071;27;20324;-76
2021/03/12 03:51:38;;;;;;;4.25;1.15;;;7.50;75.00;;;;;;5134027;27;20696;-75
2021/03/12 03:54:05;;;;;;;1.70;0.60;;;7.50;75.30;;;;;;5134020;27;20269;-76
2021/03/12 03:56:35;;;;;;;2.95;0.70;;;7.40;75.10;;;;;;5133946;27;20191;-76
2021/03/12 03:59:01;;;;;;;1.77;0.65;;;7.30;74.90;;;;;;5134053;27;20196;-75
2021/03/12 04:01:28;;;;;;;3.88;0.80;;;7.20;74.90;;;;;;5134057;27;20191;-76
2021/03/12 04:03:56;;;;;;;1.83;0.80;;;7.20;75.00;;;;;;5134161;27;20199;-76
2021/03/12 04:06:26;;;;;;;2.22;0.80;;;7.20;74.60;;;;;;5133846;27;20657;-75
2021/03/12 04:08:54;;;;;;;1.60;0.70;;;7.10;73.90;;;;;;5134281;27;20187;-77
2021/03/12 04:11:21;;;;;;;3.65;0.95;;;7.10;72.00;;;;;;5133900;27;20216;-76
2021/03/12 04:13:49;;;;;;;4.20;0.70;;;7.00;70.80;;;;;;5134045;27;20260;-76
2021/03/12 04:16:16;;;;;;;2.28;1.20;;;7.00;70.30;;;;;;5134111;27;20187;-76
2021/03/12 04:18:45;;;;;;;2.75;0.80;;;7.00;70.30;;;;;;5133873;27;20548;-75
2021/03/12 04:21:12;;;;;;;4.70;0.88;;;7.00;70.50;;;;;;5133705;27;20249;-76
2021/03/12 04:23:39;;;;;;;3.45;0.85;;;7.10;70.00;;;;;;5133723;27;20187;-76
2021/03/12 04:26:07;;;;;;;2.50;0.80;;;7.10;69.70;;;;;;5133941;27;20232;-76
2021/03/12 04:28:34;;;;;;;2.03;0.82;;;7.00;69.50;;;;;;5133624;27;20207;-76
2021/03/12 04:31:01;;;;;;;2.30;0.80;;;7.00;69.80;;;;;;5133574;28;20231;-76
2021/03/12 04:33:29;;;;;;;5.43;0.75;;;7.00;69.80;;;;;;5133974;28;20200;-76
2021/03/12 04:35:55;;;;;;;2.47;1.00;;;7.00;69.00;;;;;;5133795;28;20183;-75
2021/03/12 04:38:24;;;;;;;2.72;1.00;;;7.10;68.80;;;;;;5133474;28;20195;-75
2021/03/12 04:40:51;;;;;;;5.22;0.90;;;7.10;68.80;;;;;;5133381;28;20188;-76
2021/03/12 04:43:19;;;;;;;2.90;1.00;;;7.10;68.90;;;;;;5133768;28;20195;-75
2021/03/12 04:45:46;;;;;;;1.92;0.65;;;7.00;69.40;;;;;;5133457;28;20194;-75
2021/03/12 04:48:14;;;;;;;2.38;0.70;;;7.00;69.10;;;;;;5133541;28;20184;-75
2021/03/12 04:50:41;;;;;;;2.13;0.75;;;7.00;69.10;;;;;;5133374;27;20264;-75
2021/03/12 04:53:07;;;;;;;3.47;0.90;;;7.00;68.40;;;;;;5137236;27;20256;-75
2021/03/12 04:55:35;;;;;;;2.53;0.70;;;7.00;67.90;;;;;;5137514;27;20207;-75
2021/03/12 04:58:02;;;;;;;3.30;0.68;;;7.00;68.20;;;;;;5137322;27;20187;-75
2021/03/12 05:00:32;;;;;;;4.65;1.00;;;7.00;68.10;;;;;;5137443;27;20187;-75
2021/03/12 05:03:00;;;;;;;1.80;0.70;;;7.00;68.40;;;;;;5137223;27;20183;-75
2021/03/12 05:05:27;;;;;;;3.45;0.60;;;7.00;68.60;;;;;;5137214;27;20195;-75
2021/03/12 05:07:55;;;;;;;1.88;0.68;;;7.00;67.40;;;;;;5137279;27;20195;-75
2021/03/12 05:10:22;;;;;;;1.85;0.75;;;7.00;67.20;;;;;;5137391;27;20208;-77
2021/03/12 05:12:48;;;;;;;2.47;1.05;;;6.90;66.60;;;;;;5137375;27;20207;-75
2021/03/12 05:15:15;;;;;;;2.15;0.88;;;6.90;66.00;;;;;;5137004;27;20641;-75
2021/03/12 05:17:43;;;;;;;3.10;0.80;;;6.90;66.30;;;;;;5137423;27;20204;-76
2021/03/12 05:20:15;;;;;;;2.05;0.80;;;6.80;65.70;;;;;;5118406;27;20198;-75
2021/03/12 05:22:42;;;;;;;2.95;0.90;;;6.80;66.20;;;;;;5137382;27;20274;-76
2021/03/12 05:25:10;;;;;;;2.50;0.70;;;6.80;66.90;;;;;;5137044;27;20195;-76
2021/03/12 05:27:36;;;;;;;3.80;1.15;;;6.80;67.10;;;;;;5137435;27;20531;-76
2021/03/12 05:30:04;;;;;;;2.92;1.10;;;6.80;66.30;;;;;;5136773;27;20216;-75
2021/03/12 05:32:31;;;;;;;3.72;1.38;;;6.90;66.40;;;;;;5137193;27;20191;-76
2021/03/12 05:34:58;;;;;;;5.00;0.80;;;6.90;66.60;;;;;;5136982;27;20279;-76
2021/03/12 05:37:25;;;;;;;4.00;1.08;;;6.90;66.90;;;;;;5136762;27;20187;-75
2021/03/12 05:39:52;;;;;;;3.15;1.00;;;6.80;66.20;;;;;;5136955;27;20191;-76
2021/03/12 05:42:18;;;;;;;1.98;0.80;;;6.90;66.40;;;;;;5136969;27;20202;-75
2021/03/12 05:44:46;;;;;;;1.80;0.80;;;6.90;67.50;;;;;;5134145;27;20172;-76
2021/03/12 05:47:13;;;;;;;4.07;1.33;;;6.80;66.40;;;;;;5134307;27;20191;-75
2021/03/12 05:49:41;;;;;;;3.78;1.20;;;6.90;67.10;;;;;;5135279;27;20206;-75
2021/03/12 05:52:12;;;;;;;4.35;1.63;;;6.90;67.30;;;;;;5135747;27;20224;-75
2021/03/12 05:54:38;;;;;;;3.83;0.90;;;6.90;67.70;;;;;;5134850;27;20179;-75
2021/03/12 05:57:08;;;;;;;2.25;0.70;;;6.90;67.30;;;;;;5135792;27;20192;-74
2021/03/12 05:59:35;;;;;;;2.20;1.00;;;6.90;67.30;;;;;;5135600;27;20227;-76
2021/03/12 06:02:15;;;;;;;2.58;0.95;;;6.90;67.30;;;;;;5135025;27;20513;-76
2021/03/12 06:04:44;;;;;;;2.38;1.17;;;6.90;67.10;;;;;;5136327;27;20191;-76
2021/03/12 06:07:13;;;;;;;3.00;1.10;;;6.90;66.60;;;;;;5135638;27;20184;-76
2021/03/12 06:09:41;;;;;;;2.70;0.90;;;6.90;66.60;;;;;;5136017;27;20230;-75
2021/03/12 06:12:10;;;;;;;2.03;1.10;;;6.90;67.00;;;;;;5135377;27;20581;-76
2021/03/12 06:14:52;;;;;;;3.00;1.10;;;7.00;66.90;;;;;;5135813;27;20198;-76
2021/03/12 06:17:37;;;;;;;2.22;1.45;;;6.90;66.10;;;;;;5135622;27;20274;-76
2021/03/12 06:20:07;;;;;;;3.90;1.00;;;6.90;65.00;;;;;;5135515;27;20184;-76
2021/03/12 06:22:34;;;;;;;4.68;0.88;;;7.00;65.40;;;;;;5134829;27;20191;-76
2021/03/12 06:25:18;;;;;;;2.72;1.10;;;7.00;65.50;;;;;;5135204;27;20638;-76
2021/03/12 06:27:46;;;;;;;2.85;0.80;;;7.10;65.80;;;;;;5127279;27;20192;-76
2021/03/12 06:30:15;;;;;;;2.05;0.77;;;7.30;65.50;;;;;;5134411;27;20280;-76
2021/03/12 06:32:44;;;;;;;2.42;1.08;;;7.30;65.50;;;;;;5132879;27;20274;-76
2021/03/12 06:35:13;;;;;;;3.63;1.10;;;7.40;65.10;;;;;;5132534;27;20184;-76
2021/03/12 06:37:41;;;;;;;2.15;0.85;;;7.60;65.70;;;;;;5134363;27;20188;-76
2021/03/12 06:40:18;;;;;;;3.72;0.90;;;7.80;65.70;;;;;;5132816;27;20188;-75
2021/03/12 06:43:05;;;;;;;5.53;1.00;;;7.90;64.80;;;;;;5134845;27;20328;-75
2021/03/12 06:45:33;;;;;;;2.70;0.90;;;8.00;63.50;;;;;;5134044;27;20214;-76
2021/03/12 06:48:18;;;;;;;2.92;1.00;;;8.10;63.50;;;;;;5133719;27;20191;-76
2021/03/12 06:50:53;;;;;;;2.90;0.95;;;8.10;60.80;;;;;;5133005;27;20733;-76
2021/03/12 06:53:40;;;;;;;2.58;0.90;;;8.10;61.00;;;;;;5134245;27;20191;-76
2021/03/12 06:56:08;;;;;;;2.72;1.23;;;8.20;60.80;;;;;;5129716;27;20187;-76
2021/03/12 06:58:35;;;;;;;2.60;1.02;;;8.20;59.50;;;;;;5134603;27;20211;-75
2021/03/12 07:01:03;;;;;;;2.33;1.10;;;8.20;59.60;;;;;;5134839;27;20196;-75
2021/03/12 07:03:32;;;;;;;2.28;1.10;;;8.20;60.80;;;;;;5134269;27;20249;-75
2021/03/12 07:06:04;;;;;;;2.10;1.02;;;8.20;59.40;;;;;;5134278;27;20195;-75
2021/03/12 07:08:37;;;;;;;4.20;1.10;;;8.20;59.20;;;;;;5133723;27;20657;-76
2021/03/12 07:11:19;;;;;;;5.72;1.05;;;8.20;58.60;;;;;;5134222;27;20298;-76
2021/03/12 07:13:46;;;;;;;4.18;1.42;;;8.20;58.60;;;;;;5132815;27;20581;-76
2021/03/12 07:16:13;;;;;;;3.00;1.25;;;8.10;57.60;;;;;;5134351;27;20282;-75
2021/03/12 07:18:40;;;;;;;2.72;0.95;;;8.10;57.80;;;;;;5133038;27;20248;-75
2021/03/12 07:21:09;;;;;;;7.53;1.50;;;8.10;57.80;;;;;;5134009;27;20574;-75
2021/03/12 07:23:42;;;;;;;4.45;1.55;;;8.20;58.00;;;;;;5134487;27;20535;-75
2021/03/12 07:26:12;;;;;;;2.88;1.40;;;8.30;58.40;;;;;;5134520;27;20701;-75
2021/03/12 07:28:42;;;;;;;4.05;0.95;;;8.30;58.50;;;;;;5134733;27;20199;-75
2021/03/12 07:31:11;;;;;;;1.98;1.00;;;8.30;58.70;;;;;;5134241;27;20236;-75
2021/03/12 07:33:40;;;;;;;2.08;0.80;;;8.50;59.60;;;;;;5134588;27;20205;-76
2021/03/12 07:36:10;;;;;;;5.05;1.25;;;8.60;58.70;;;;;;5132280;27;20241;-76
2021/03/12 07:38:38;;;;;;;4.35;1.40;;;8.60;57.90;;;;;;5134268;27;20196;-76
2021/03/12 07:41:06;;;;;;;2.75;1.02;;;8.60;58.00;;;;;;5134381;27;20187;-76
2021/03/12 07:43:39;;;;;;;4.15;1.10;;;8.50;57.70;;;;;;5134412;27;20199;-75
2021/03/12 07:46:08;;;;;;;2.90;0.70;;;8.50;58.10;;;;;;5134050;27;20231;-75
2021/03/12 07:48:36;;;;;;;2.53;1.10;;;8.50;57.70;;;;;;5134281;27;20187;-76
2021/03/12 07:51:09;;;;;;;3.50;1.30;;;8.50;58.40;;;;;;5134179;27;20234;-75
2021/03/12 07:53:50;;;;;;;2.60;1.05;;;8.60;59.90;;;;;;5134262;27;20238;-75
2021/03/12 07:56:18;;;;;;;6.65;3.13;;;8.70;59.90;;;;;;5134249;27;20286;-75
2021/03/12 07:58:53;;;;;;;5.68;1.10;;;8.80;59.70;;;;;;5134147;27;20195;-75
2021/03/12 08:01:21;;;;;;;3.50;1.20;;;9.00;59.90;;;;;;5134149;27;20191;-76
2021/03/12 08:03:49;;;;;;;2.63;0.90;;;9.20;57.60;;;;;;5134000;27;20548;-75
2021/03/12 08:06:35;;;;;;;2.58;1.20;;;9.40;58.60;;;;;;5134009;27;20649;-76
2021/03/12 08:09:04;;;;;;;6.90;1.25;;;9.60;57.50;;;;;;5129872;27;20624;-76
2021/03/12 08:11:33;;;;;;;3.35;1.20;;;9.90;56.20;;;;;;5132355;27;20220;-76
2021/03/12 08:14:16;;;;;;;2.67;1.30;;;10.40;54.10;;;;;;5132427;27;20196;-76
2021/03/12 08:17:18;;;;;;;3.65;0.93;;;11.40;53.80;;;;;;5132381;27;20191;-76
2021/03/12 08:19:52;;;;;;;3.85;0.82;;;12.40;51.90;;;;;;5127283;27;20203;-76
2021/03/12 08:22:44;;;;;;;3.72;1.25;;;12.90;51.80;;;;;;5131830;27;20199;-76
2021/03/12 08:25:29;;;;;;;3.60;1.27;;;14.00;47.10;;;;;;5130928;27;20585;-76
2021/03/12 08:27:56;;;;;;;4.95;2.20;;;14.10;45.80;;;;;;5118604;27;20296;-76
2021/03/12 08:30:52;;;;;;;5.13;1.58;;;15.60;51.60;;;;;;5131822;28;20361;-76
2021/03/12 08:33:40;;;;;;;5.50;1.43;;;18.90;39.00;;;;;;5050538;28;20658;-76
2021/03/12 08:36:07;;;;;;;2.53;1.10;;;19.10;35.80;;;;;;5125740;28;20452;-77
2021/03/12 08:38:44;;;;;;;4.70;1.30;;;20.30;37.70;;;;;;5128228;28;20445;-76
2021/03/12 08:41:22;;;;;;;4.10;1.10;;;20.60;29.10;;;;;;5132607;28;20437;-76
2021/03/12 08:43:55;;;;;;;4.60;1.13;;;20.90;34.90;;;;;;5132775;28;20548;-77
2021/03/12 08:46:24;;;;;;;7.80;1.30;;;23.00;30.00;;;;;;5130485;28;20442;-77
2021/03/12 08:48:55;;;;;;;2.30;1.00;;;25.10;31.70;;;;;;5131906;28;20469;-77
2021/03/12 08:51:24;;;;;;;7.73;1.07;;;28.40;28.90;;;;;;5128267;28;20528;-77
2021/03/12 08:53:53;;;;;;;5.00;1.07;;;31.00;24.40;;;;;;5132770;28;20899;-77
2021/03/12 08:56:25;;;;;;;6.37;1.93;;;33.20;22.20;;;;;;5121516;28;20438;-77
2021/03/12 08:58:51;;;;;;;4.83;1.40;;;34.70;16.60;;;;;;5119358;28;20863;-77
2021/03/12 09:01:19;;;;;;;3.93;1.50;;;35.00;16.30;;;;;;5132236;28;20448;-77
2021/03/12 09:03:49;;;;;;;2.20;0.90;;;36.10;16.10;;;;;;5132424;28;20787;-77
2021/03/12 09:06:22;;;;;;;7.10;1.33;;;36.90;13.60;;;;;;5128536;28;20549;-77
2021/03/12 09:08:49;;;;;;;7.37;1.00;;;36.40;14.70;;;;;;5131913;28;20445;-78
2021/03/12 09:11:18;;;;;;;11.03;1.37;;;37.10;14.20;;;;;;5131873;28;21017;-79
2021/03/12 09:13:45;;;;;;;5.10;1.53;;;38.00;12.70;;;;;;5132373;28;20453;-75
2021/03/12 09:16:17;;;;;;;3.97;1.17;;;38.70;12.50;;;;;;5131849;28;20441;-76
2021/03/12 09:18:44;;;;;;;5.20;1.00;;;39.40;11.60;;;;;;5131700;28;21015;-75
2021/03/12 09:21:16;;;;;;;4.60;1.40;;;40.30;10.30;;;;;;5131963;28;21017;-76
2021/03/12 09:23:45;;;;;;;2.77;0.97;;;40.80;11.20;;;;;;5132086;28;20472;-76
2021/03/12 09:26:13;;;;;;;3.30;0.90;;;41.80;10.10;;;;;;5132065;28;20446;-76
2021/03/12 09:28:40;;;;;;;3.63;0.97;;;41.00;8.80;;;;;;5131622;28;20445;-76
2021/03/12 09:31:08;;;;;;;2.40;1.00;;;41.10;10.30;;;;;;5129396;28;20473;-75
2021/03/12 09:33:36;;;;;;;3.80;1.40;;;40.00;8.20;;;;;;5131915;28;20543;-75
2021/03/12 09:36:05;;;;;;;2.20;1.00;;;39.10;9.80;;;;;;5131811;28;20528;-76
2021/03/12 09:38:39;;;;;;;4.53;1.30;;;40.00;10.10;;;;;;5133383;27;20468;-75
2021/03/12 09:41:26;;;;;;;3.10;1.20;;;41.00;9.00;;;;;;5135228;27;20981;-76
2021/03/12 09:44:02;;;;;;;2.80;1.17;;;42.30;8.50;;;;;;5128975;27;20441;-76
2021/03/12 09:46:29;;;;;;;4.07;1.17;;;42.40;7.80;;;;;;5134179;27;20441;-76
2021/03/12 09:48:58;;;;;;;3.53;1.00;;;43.00;7.70;;;;;;5135131;27;20444;-76
2021/03/12 09:51:25;;;;;;;3.87;1.13;;;43.90;8.40;;;;;;5135783;27;20615;-76
2021/03/12 09:53:54;;;;;;;3.97;1.10;;;44.80;7.40;;;;;;5135580;27;20465;-77
2021/03/12 09:56:22;;;;;;;3.63;1.40;;;43.50;6.60;;;;;;5135731;27;20854;-76
2021/03/12 09:58:49;;;;;;;4.47;1.53;;;42.70;6.50;;;;;;5133046;27;20525;-77
2021/03/12 10:01:18;;;;;;;2.70;1.03;;;41.70;7.60;;;;;;5135465;27;20580;-77
2021/03/12 10:03:45;;;;;;;6.63;1.70;;;41.60;8.20;;;;;;5133957;27;20437;-77
2021/03/12 10:06:13;;;;;;;7.63;1.60;;;40.90;7.00;;;;;;5134946;27;20434;-77
2021/03/12 10:09:03;;;;;;;4.23;1.17;;;40.70;7.40;;;;;;5134831;27;20433;-77
2021/03/12 10:11:47;;;;;;;4.17;1.07;;;41.00;7.10;;;;;;5132881;27;20979;-76
2021/03/12 10:14:35;;;;;;;3.57;1.13;;;41.50;6.80;;;;;;5135058;27;20440;-76
2021/03/12 10:17:09;;;;;;;4.73;1.50;;;40.30;6.10;;;;;;5132952;27;20444;-75
2021/03/12 10:19:52;;;;;;;3.10;1.10;;;37.70;7.00;;;;;;5131667;27;20847;-76
2021/03/12 10:22:21;;;;;;;2.73;1.00;;;37.40;7.40;;;;;;5133749;27;20477;-76
2021/03/12 10:24:55;;;;;;;2.93;1.00;;;35.90;7.90;;;;;;5133642;27;20438;-75
2021/03/12 10:27:23;;;;;;;2.20;0.87;;;35.10;9.40;;;;;;5134207;27;20797;-75
2021/03/12 10:29:51;;;;;;;3.30;0.90;;;34.30;9.00;;;;;;5130210;27;20461;-76
2021/03/12 10:32:17;;;;;;;3.17;0.90;;;36.20;10.00;;;;;;5134499;27;20460;-75
2021/03/12 10:34:50;;;;;;;2.70;1.27;;;38.60;8.30;;;;;;5134603;27;20951;-76
2021/03/12 10:37:18;;;;;;;4.03;1.67;;;40.50;8.50;;;;;;5134541;27;20437;-76
2021/03/12 10:39:46;;;;;;;2.83;1.07;;;39.80;6.80;;;;;;5130841;27;20513;-76
2021/03/12 10:42:14;;;;;;;2.57;0.70;;;39.60;7.70;;;;;;5134420;27;20541;-77
2021/03/12 10:44:59;;;;;;;2.67;1.17;;;41.00;7.80;;;;;;5134436;27;20728;-77
2021/03/12 10:47:25;;;;;;;1.90;1.03;;;40.40;6.30;;;;;;5134659;27;20844;-76
2021/03/12 10:49:52;;;;;;;2.20;1.10;;;38.20;7.10;;;;;;5129950;27;20441;-76
2021/03/12 10:52:24;;;;;;;2.20;0.80;;;39.20;8.30;;;;;;5134408;27;20888;-75
2021/03/12 10:54:50;;;;;;;2.73;0.97;;;39.40;7.10;;;;;;5134093;27;20433;-77
2021/03/12 10:57:18;;;;;;;3.83;1.00;;;40.50;7.60;;;;;;5134304;27;22557;-77
2021/03/12 10:59:55;;;;;;;2.70;0.93;;;41.90;6.90;;;;;;5130121;27;20437;-76
2021/03/12 11:02:31;;;;;;;2.83;1.67;;;42.60;5.50;;;;;;5134328;27;20559;-77
2021/03/12 11:04:58;;;;;;;2.97;1.30;;;42.40;6.90;;;;;;5134066;27;20444;-78
2021/03/12 11:07:25;;;;;;;5.30;0.77;;;44.10;7.10;;;;;;5134231;27;20525;-78
2021/03/12 11:09:52;;;;;;;2.03;0.90;;;46.00;6.20;;;;;;5133656;27;20448;-78
2021/03/12 11:12:19;;;;;;;5.43;1.90;;;47.20;5.70;;;;;;5132054;27;20429;-77
2021/03/12 11:14:47;;;;;;;3.60;1.20;;;48.40;5.40;;;;;;5134106;27;20520;-77
2021/03/12 11:17:14;;;;;;;2.67;0.90;;;48.20;4.00;;;;;;5133764;27;20469;-77
2021/03/12 11:19:40;;;;;;;2.67;0.90;;;45.30;3.90;;;;;;5129668;27;20441;-77
2021/03/12 11:22:07;;;;;;;2.60;1.20;;;41.90;5.30;;;;;;5133534;27;20485;-77
2021/03/12 11:24:33;;;;;;;5.00;1.20;;;40.80;5.30;;;;;;5116506;27;20442;-76
2021/03/12 11:27:00;;;;;;;2.50;1.17;;;38.80;6.20;;;;;;5117515;27;20433;-76
2021/03/12 11:29:28;;;;;;;2.10;1.40;;;36.80;6.60;;;;;;5128912;27;20853;-75
2021/03/12 11:31:55;;;;;;;1.80;1.00;;;35.60;7.20;;;;;;5132829;27;20472;-76
2021/03/12 11:34:21;;;;;;;2.90;1.37;;;35.20;8.80;;;;;;5133110;27;21361;-76
2021/03/12 11:36:48;;;;;;;3.00;1.10;;;37.20;8.80;;;;;;5132993;27;20896;-76
2021/03/12 11:39:15;;;;;;;3.03;1.00;;;39.80;8.00;;;;;;5132617;27;20469;-75
2021/03/12 11:41:42;;;;;;;2.10;0.90;;;40.60;6.80;;;;;;5132883;27;20491;-75
2021/03/12 11:44:08;;;;;;;3.83;1.40;;;41.00;6.00;;;;;;5131255;27;20433;-76
2021/03/12 11:46:38;;;;;;;7.63;1.37;;;40.60;6.50;;;;;;5132822;27;20445;-75
2021/03/12 11:49:05;;;;;;;2.53;0.87;;;40.70;6.30;;;;;;5129713;27;20452;-75
2021/03/12 11:51:32;;;;;;;2.37;1.20;;;42.20;7.00;;;;;;5129547;27;20488;-77
2021/03/12 11:53:59;;;;;;;3.10;1.10;;;43.90;6.20;;;;;;5133263;27;20950;-77
2021/03/12 11:56:26;;;;;;;4.67;1.00;;;45.50;6.20;;;;;;5132909;27;20434;-77
2021/03/12 11:58:54;;;;;;;2.50;1.10;;;46.10;5.10;;;;;;5132725;27;20922;-76
2021/03/12 12:01:20;;;;;;;2.77;1.00;;;46.60;4.20;;;;;;5132526;27;20480;-77
2021/03/12 12:03:48;;;;;;;4.17;2.03;;;46.40;4.90;;;;;;5132673;27;20445;-78
2021/03/12 12:06:14;;;;;;;4.70;1.00;;;47.10;4.90;;;;;;5132860;27;20466;-78
2021/03/12 12:08:41;;;;;;;2.90;1.17;;;47.70;4.20;;;;;;5132753;27;20472;-78
2021/03/12 12:11:07;;;;;;;3.60;0.90;;;48.20;4.20;;;;;;5132217;27;20445;-77
2021/03/12 12:13:34;;;;;;;3.13;1.37;;;48.50;4.00;;;;;;5132607;27;20514;-77
2021/03/12 12:16:00;;;;;;;3.83;1.53;;;48.60;4.10;;;;;;5132512;27;20437;-77
2021/03/12 12:18:27;;;;;;;3.70;1.00;;;48.60;3.80;;;;;;5132758;27;20486;-77
2021/03/12 12:20:54;;;;;;;1.93;0.97;;;48.30;4.00;;;;;;5132592;27;20433;-77
2021/03/12 12:23:21;;;;;;;2.40;1.17;;;48.50;3.70;;;;;;5133117;27;20807;-77
2021/03/12 12:25:49;;;;;;;1.90;0.80;;;48.40;3.80;;;;;;5132515;27;20449;-77
2021/03/12 12:28:15;;;;;;;2.57;1.20;;;48.40;3.50;;;;;;5130458;27;20445;-77
2021/03/12 12:30:42;;;;;;;2.93;1.87;;;47.80;3.30;;;;;;5130915;27;20480;-77
2021/03/12 12:33:08;;;;;;;3.13;1.43;;;45.50;3.10;;;;;;5132438;28;20434;-76
2021/03/12 12:35:37;;;;;;;3.40;1.53;;;42.70;4.30;;;;;;5132611;28;20548;-77
2021/03/12 12:38:06;;;;;;;3.73;1.33;;;42.80;5.40;;;;;;5126525;28;20445;-76
2021/03/12 12:40:33;;;;;;;3.43;1.50;;;44.00;5.50;;;;;;5129361;28;20805;-77
2021/03/12 12:43:00;;;;;;;3.73;1.10;;;44.30;4.90;;;;;;5130674;28;20563;-77
2021/03/12 12:45:26;;;;;;;1.93;0.80;;;42.90;5.30;;;;;;5132371;28;20448;-76
2021/03/12 12:47:54;;;;;;;2.47;1.10;;;42.40;4.50;;;;;;5131541;28;20539;-77
2021/03/12 12:50:21;;;;;;;3.60;1.20;;;41.70;5.80;;;;;;5128203;28;20837;-76
2021/03/12 12:52:47;;;;;;;4.80;1.70;;;41.60;4.80;;;;;;5131553;28;20480;-77
2021/03/12 12:55:22;;;;;;;3.60;1.20;;;41.40;5.70;;;;;;5132021;28;20445;-76
2021/03/12 12:57:49;;;;;;;2.90;1.13;;;41.70;5.60;;;;;;5131538;28;20445;-76
2021/03/12 13:00:17;;;;;;;5.00;1.10;;;41.10;5.10;;;;;;5127845;28;20450;-76
2021/03/12 13:02:43;;;;;;;4.30;1.50;;;39.70;5.90;;;;;;5131752;28;20481;-75
2021/03/12 13:05:11;;;;;;;2.40;1.37;;;39.70;6.00;;;;;;5130921;28;20437;-75
2021/03/12 13:07:38;;;;;;;5.07;1.60;;;38.70;6.30;;;;;;5120497;28;20791;-77